createdAt,value
2022-11-15T00:00:54.340Z,21.64
2022-11-15T00:03:22.473Z,21.66
2022-11-15T00:05:49.795Z,21.65
2022-11-15T00:08:16.281Z,21.66
2022-11-15T00:10:43.522Z,21.62
2022-11-15T00:13:13.853Z,21.61
2022-11-15T00:15:42.018Z,21.64
2022-11-15T00:18:14.160Z,21.62
2022-11-15T00:20:40.686Z,21.59
2022-11-15T00:23:08.331Z,21.58
2022-11-15T00:25:35.188Z,21.58
2022-11-15T00:28:02.398Z,21.58
2022-11-15T00:30:29.253Z,21.59
2022-11-15T00:32:56.083Z,21.57
2022-11-15T00:35:23.042Z,21.57
2022-11-15T00:37:49.758Z,21.58
2022-11-15T00:40:16.560Z,21.56
2022-11-15T00:42:43.146Z,21.57
2022-11-15T00:45:10.251Z,21.55
2022-11-15T00:47:36.743Z,21.55
2022-11-15T00:50:03.560Z,21.54
2022-11-15T00:52:30.028Z,21.55
2022-11-15T00:54:56.555Z,21.56
2022-11-15T00:57:23.073Z,21.54
2022-11-15T00:59:49.519Z,21.53
2022-11-15T01:02:15.993Z,21.52
2022-11-15T01:04:42.538Z,21.51
2022-11-15T01:07:09.078Z,21.52
2022-11-15T01:09:35.643Z,21.50
2022-11-15T01:12:02.197Z,21.50
2022-11-15T01:14:28.703Z,21.52
2022-11-15T01:16:55.248Z,21.50
2022-11-15T01:19:21.728Z,21.49
2022-11-15T01:21:51.159Z,21.51
2022-11-15T01:24:17.765Z,21.49
2022-11-15T01:26:44.296Z,21.48
2022-11-15T01:29:10.763Z,21.48
2022-11-15T01:31:37.270Z,21.46
2022-11-15T01:34:03.738Z,21.45
2022-11-15T01:36:30.248Z,21.46
2022-11-15T01:38:58.700Z,21.46
2022-11-15T01:41:28.754Z,21.45
2022-11-15T01:44:33.067Z,21.44
2022-11-15T01:47:02.914Z,21.47
2022-11-15T01:49:33.407Z,21.47
2022-11-15T01:52:04.582Z,21.46
2022-11-15T01:54:31.508Z,21.45
2022-11-15T01:57:02.756Z,21.46
2022-11-15T01:59:29.819Z,21.44
2022-11-15T02:01:56.437Z,21.42
2022-11-15T02:04:27.779Z,21.41
2022-11-15T02:06:54.379Z,21.42
2022-11-15T02:09:21.264Z,21.41
2022-11-15T02:11:49.555Z,21.41
2022-11-15T02:14:19.312Z,21.39
2022-11-15T02:16:56.151Z,21.39
2022-11-15T02:19:34.813Z,21.39
2022-11-15T02:22:25.640Z,21.39
2022-11-15T02:25:01.172Z,21.37
2022-11-15T02:27:42.704Z,21.38
2022-11-15T02:30:25.551Z,21.38
2022-11-15T02:32:59.487Z,21.38
2022-11-15T02:36:10.660Z,21.38
2022-11-15T02:38:52.146Z,21.36
2022-11-15T02:41:28.049Z,21.36
2022-11-15T02:43:57.466Z,21.35
2022-11-15T02:47:12.921Z,21.34
2022-11-15T02:49:43.142Z,21.34
2022-11-15T02:52:09.596Z,21.32
2022-11-15T02:54:36.666Z,21.32
2022-11-15T02:57:13.306Z,21.32
2022-11-15T02:59:58.137Z,21.31
2022-11-15T03:02:59.614Z,21.31
2022-11-15T03:05:54.415Z,21.29
2022-11-15T03:08:32.338Z,21.29
2022-11-15T03:11:14.377Z,21.29
2022-11-15T03:13:48.731Z,21.29
2022-11-15T03:16:28.472Z,21.28
2022-11-15T03:19:00.948Z,21.28
2022-11-15T03:21:29.992Z,21.28
2022-11-15T03:23:59.338Z,21.27
2022-11-15T03:26:27.041Z,21.25
2022-11-15T03:29:23.266Z,21.26
2022-11-15T03:31:58.221Z,21.24
2022-11-15T03:34:46.092Z,21.23
2022-11-15T03:37:15.662Z,21.21
2022-11-15T03:39:43.511Z,21.22
2022-11-15T03:42:15.991Z,21.21
2022-11-15T03:45:11.862Z,21.21
2022-11-15T03:48:01.258Z,21.19
2022-11-15T03:50:28.321Z,21.21
2022-11-15T03:52:55.952Z,21.20
2022-11-15T03:55:23.083Z,21.20
2022-11-15T03:57:56.163Z,21.19
2022-11-15T04:00:22.650Z,21.18
2022-11-15T04:02:49.118Z,21.18
2022-11-15T04:05:15.607Z,21.17
2022-11-15T04:07:42.062Z,21.15
2022-11-15T04:10:10.888Z,21.17
2022-11-15T04:12:44.124Z,21.17
2022-11-15T04:15:16.838Z,21.16
2022-11-15T04:17:48.559Z,21.17
2022-11-15T04:20:40.770Z,21.17
2022-11-15T04:23:30.317Z,21.17
2022-11-15T04:26:00.135Z,21.17
2022-11-15T04:28:26.803Z,21.16
2022-11-15T04:30:53.884Z,21.16
2022-11-15T04:33:21.317Z,21.15
2022-11-15T04:36:07.802Z,21.17
2022-11-15T04:38:35.259Z,21.18
2022-11-15T04:41:02.265Z,21.15
2022-11-15T04:43:30.079Z,21.16
2022-11-15T04:45:56.939Z,21.15
2022-11-15T04:48:23.387Z,21.14
2022-11-15T04:50:50.073Z,21.14
2022-11-15T04:53:16.760Z,21.13
2022-11-15T04:55:46.474Z,21.14
2022-11-15T04:58:12.924Z,21.14
2022-11-15T05:00:40.749Z,21.16
2022-11-15T05:03:26.182Z,21.15
2022-11-15T05:05:52.642Z,21.15
2022-11-15T05:08:19.109Z,21.17
2022-11-15T05:10:45.919Z,21.18
2022-11-15T05:13:12.370Z,21.17
2022-11-15T05:15:38.822Z,21.16
2022-11-15T05:18:05.346Z,21.17
2022-11-15T05:20:31.807Z,21.18
2022-11-15T05:22:58.263Z,21.18
2022-11-15T05:25:24.803Z,21.18
2022-11-15T05:27:51.297Z,21.17
2022-11-15T05:30:18.015Z,21.19
2022-11-15T05:32:45.449Z,21.20
2022-11-15T05:35:19.452Z,21.20
2022-11-15T05:37:45.911Z,21.22
2022-11-15T05:40:12.408Z,21.21
2022-11-15T05:42:38.951Z,21.20
2022-11-15T05:45:09.639Z,21.19
2022-11-15T05:47:38.658Z,21.20
2022-11-15T05:50:05.644Z,21.21
2022-11-15T05:52:37.060Z,21.18
2022-11-15T05:55:07.934Z,21.12
2022-11-15T05:57:34.423Z,21.09
2022-11-15T06:00:01.110Z,21.11
2022-11-15T06:02:27.612Z,21.13
2022-11-15T06:04:54.070Z,21.17
2022-11-15T06:07:20.656Z,21.20
2022-11-15T06:09:47.155Z,21.20
2022-11-15T06:12:14.427Z,21.21
2022-11-15T06:14:40.884Z,21.22
2022-11-15T06:17:11.122Z,21.25
2022-11-15T06:19:38.051Z,21.25
2022-11-15T06:22:04.508Z,21.23
2022-11-15T06:24:30.975Z,21.21
2022-11-15T06:26:58.469Z,21.24
2022-11-15T06:29:24.946Z,21.24
2022-11-15T06:31:51.931Z,21.23
2022-11-15T06:34:18.366Z,21.24
2022-11-15T06:36:44.819Z,21.20
2022-11-15T06:39:11.460Z,21.21
2022-11-15T06:41:37.951Z,21.19
2022-11-15T06:44:04.443Z,21.18
2022-11-15T06:46:30.947Z,21.19
2022-11-15T06:48:57.422Z,21.17
2022-11-15T06:51:23.956Z,21.17
2022-11-15T06:53:50.480Z,21.13
2022-11-15T06:56:16.990Z,21.11
2022-11-15T06:58:43.483Z,21.13
2022-11-15T07:01:12.398Z,21.11
2022-11-15T07:03:41.824Z,21.10
2022-11-15T07:06:09.780Z,21.10
2022-11-15T07:08:36.981Z,21.09
2022-11-15T07:11:08.399Z,21.08
2022-11-15T07:13:36.978Z,21.09
2022-11-15T07:16:05.625Z,21.09
2022-11-15T07:18:34.138Z,21.10
2022-11-15T07:21:09.814Z,21.08
2022-11-15T07:23:40.152Z,21.09
2022-11-15T07:26:07.776Z,21.09
2022-11-15T07:28:34.834Z,21.07
2022-11-15T07:31:09.444Z,21.07
2022-11-15T07:33:36.516Z,21.05
2022-11-15T07:36:05.043Z,21.06
2022-11-15T07:38:39.407Z,21.06
2022-11-15T07:41:08.890Z,21.05
2022-11-15T07:43:35.471Z,21.04
2022-11-15T07:46:12.505Z,21.04
2022-11-15T07:48:44.588Z,21.04
2022-11-15T07:51:15.471Z,21.03
2022-11-15T07:53:43.391Z,21.06
2022-11-15T07:56:10.602Z,21.07
2022-11-15T07:58:37.539Z,21.08
2022-11-15T08:01:05.639Z,21.05
2022-11-15T08:03:33.986Z,21.06
2022-11-15T08:06:00.886Z,21.08
2022-11-15T08:08:27.401Z,21.07
2022-11-15T08:10:53.967Z,21.06
2022-11-15T08:13:20.822Z,21.05
2022-11-15T08:15:47.511Z,21.06
2022-11-15T08:18:16.677Z,21.03
2022-11-15T08:20:43.715Z,21.05
2022-11-15T08:23:13.543Z,21.03
2022-11-15T08:25:40.652Z,21.05
2022-11-15T08:28:11.087Z,21.07
2022-11-15T08:30:43.515Z,21.06
2022-11-15T08:33:14.795Z,21.06
2022-11-15T08:35:43.144Z,21.05
2022-11-15T08:38:10.151Z,21.06
2022-11-15T08:40:36.920Z,21.09
2022-11-15T08:43:03.921Z,21.08
2022-11-15T08:45:31.647Z,21.06
2022-11-15T08:47:58.472Z,21.07
2022-11-15T08:50:25.016Z,21.07
2022-11-15T08:52:51.610Z,21.08
2022-11-15T08:55:18.080Z,21.06
2022-11-15T08:57:44.767Z,21.05
2022-11-15T09:00:12.823Z,21.08
2022-11-15T09:02:40.704Z,21.08
2022-11-15T09:05:08.223Z,21.10
2022-11-15T09:07:34.974Z,21.12
2022-11-15T09:10:01.692Z,21.09
2022-11-15T09:12:28.502Z,21.10
2022-11-15T09:14:55.646Z,21.09
2022-11-15T09:17:25.007Z,21.09
2022-11-15T09:19:51.969Z,21.09
2022-11-15T09:22:18.855Z,21.09
2022-11-15T09:24:45.375Z,21.08
2022-11-15T09:27:12.697Z,21.08
2022-11-15T09:29:39.152Z,21.09
2022-11-15T09:32:06.320Z,21.12
2022-11-15T09:34:32.930Z,21.10
2022-11-15T09:36:59.391Z,21.08
2022-11-15T09:39:25.839Z,21.10
2022-11-15T09:42:13.312Z,21.12
2022-11-15T09:45:18.308Z,21.12
2022-11-15T09:48:11.094Z,21.13
2022-11-15T09:50:44.489Z,21.14
2022-11-15T09:53:14.983Z,21.11
2022-11-15T09:55:57.200Z,21.14
2022-11-15T09:58:54.967Z,21.12
2022-11-15T10:01:30.629Z,21.13
2022-11-15T10:04:00.161Z,21.16
2022-11-15T10:06:27.755Z,21.16
2022-11-15T10:09:13.848Z,21.17
2022-11-15T10:11:41.939Z,21.15
2022-11-15T10:14:23.995Z,21.17
2022-11-15T10:17:02.465Z,21.18
2022-11-15T10:20:06.723Z,21.16
2022-11-15T10:22:48.475Z,21.16
2022-11-15T10:25:17.836Z,21.18
2022-11-15T10:27:48.315Z,21.21
2022-11-15T10:30:18.444Z,21.20
2022-11-15T10:32:46.797Z,21.20
2022-11-15T10:35:29.753Z,21.20
2022-11-15T10:38:07.759Z,21.22
2022-11-15T10:40:35.407Z,21.21
2022-11-15T10:43:10.937Z,21.21
2022-11-15T10:45:39.264Z,21.22
2022-11-15T10:48:14.627Z,21.25
2022-11-15T10:50:46.632Z,21.23
2022-11-15T10:53:28.284Z,21.25
2022-11-15T10:55:58.648Z,21.26
2022-11-15T10:58:37.250Z,21.24
2022-11-15T11:01:11.482Z,21.28
2022-11-15T11:03:40.180Z,21.30
2022-11-15T11:06:18.092Z,21.27
2022-11-15T11:09:00.773Z,21.26
2022-11-15T11:11:49.534Z,21.29
2022-11-15T11:14:28.710Z,21.27
2022-11-15T11:16:59.028Z,21.26
2022-11-15T11:19:31.581Z,21.28
2022-11-15T11:22:27.043Z,21.28
2022-11-15T11:25:06.163Z,21.31
2022-11-15T11:28:06.700Z,21.31
2022-11-15T11:30:39.442Z,21.31
2022-11-15T11:33:15.976Z,21.30
2022-11-15T11:36:27.172Z,21.33
2022-11-15T11:39:18.099Z,21.32
2022-11-15T11:41:50.609Z,21.31
2022-11-15T11:44:22.904Z,21.33
2022-11-15T11:47:03.983Z,21.31
2022-11-15T11:49:44.531Z,21.33
2022-11-15T11:52:29.290Z,21.34
2022-11-15T11:55:01.274Z,21.37
2022-11-15T11:57:45.435Z,21.36
2022-11-15T12:00:23.405Z,21.37
2022-11-15T12:03:00.035Z,21.39
2022-11-15T12:05:37.798Z,21.38
2022-11-15T12:08:39.598Z,21.40
2022-11-15T12:11:14.990Z,21.41
2022-11-15T12:13:43.440Z,21.41
2022-11-15T12:16:16.587Z,21.41
2022-11-15T12:18:49.155Z,21.43
2022-11-15T12:21:35.526Z,21.44
2022-11-15T12:24:09.634Z,21.43
2022-11-15T12:26:47.269Z,21.42
2022-11-15T12:29:23.671Z,21.44
2022-11-15T12:31:56.595Z,21.45
2022-11-15T12:34:23.143Z,21.45
2022-11-15T12:36:51.512Z,21.45
2022-11-15T12:39:19.022Z,21.47
2022-11-15T12:42:05.827Z,21.47
2022-11-15T12:44:32.225Z,21.45
2022-11-15T12:46:58.607Z,21.46
2022-11-15T12:49:25.016Z,21.45
2022-11-15T12:51:52.917Z,21.45
2022-11-15T12:54:25.253Z,21.46
2022-11-15T12:57:03.702Z,21.48
2022-11-15T13:00:07.647Z,21.51
2022-11-15T13:02:35.969Z,21.51
2022-11-15T13:05:20.433Z,21.49
2022-11-15T13:07:49.603Z,21.51
2022-11-15T13:10:28.559Z,21.50
2022-11-15T13:13:08.685Z,21.48
2022-11-15T13:16:00.069Z,21.49
2022-11-15T13:18:34.953Z,21.48
2022-11-15T13:21:03.178Z,21.46
2022-11-15T13:23:30.090Z,21.46
2022-11-15T13:26:08.510Z,21.48
2022-11-15T13:28:54.290Z,21.46
2022-11-15T13:31:41.420Z,21.47
2022-11-15T13:37:35.326Z,21.48
2022-11-15T13:40:35.835Z,21.50
2022-11-15T13:43:29.280Z,21.51
2022-11-15T13:46:28.592Z,21.51
2022-11-15T13:48:59.276Z,21.51
2022-11-15T13:51:49.005Z,21.51
2022-11-15T13:54:28.311Z,21.50
2022-11-15T13:57:16.719Z,21.50
2022-11-15T13:59:50.638Z,21.52
2022-11-15T14:02:21.454Z,21.52
2022-11-15T14:04:55.080Z,21.51
2022-11-15T14:07:25.018Z,21.51
2022-11-15T14:09:51.900Z,21.52
2022-11-15T14:12:39.360Z,21.54
2022-11-15T14:15:21.132Z,21.53
2022-11-15T14:17:50.292Z,21.53
2022-11-15T14:20:25.886Z,21.54
2022-11-15T14:22:58.211Z,21.57
2022-11-15T14:25:33.092Z,21.55
2022-11-15T14:28:08.598Z,21.54
2022-11-15T14:30:35.219Z,21.56
2022-11-15T14:33:02.155Z,21.54
2022-11-15T14:35:28.591Z,21.54
2022-11-15T14:37:55.064Z,21.54
2022-11-15T14:40:22.865Z,21.54
2022-11-15T14:42:50.942Z,21.54
2022-11-15T14:45:20.424Z,21.52
2022-11-15T14:47:46.932Z,21.53
2022-11-15T14:50:15.493Z,21.53
2022-11-15T14:52:43.228Z,21.54
2022-11-15T14:55:25.380Z,21.57
2022-11-15T14:57:53.506Z,21.57
2022-11-15T15:00:20.570Z,21.58
2022-11-15T15:02:48.410Z,21.57
2022-11-15T15:05:16.308Z,21.59
2022-11-15T15:07:43.368Z,21.58
2022-11-15T15:10:39.538Z,21.57
2022-11-15T15:12:56.894Z,21.59
2022-11-15T15:15:27.096Z,21.58
2022-11-15T15:17:53.636Z,21.57
2022-11-15T15:20:20.082Z,21.58
2022-11-15T15:22:46.580Z,21.58
2022-11-15T15:25:27.955Z,21.58
2022-11-15T15:27:55.474Z,21.57
2022-11-15T15:30:26.157Z,21.57
2022-11-15T15:32:52.807Z,21.58
2022-11-15T15:35:19.891Z,21.59
2022-11-15T15:37:48.169Z,21.58
2022-11-15T15:40:16.833Z,21.58
2022-11-15T15:42:43.835Z,21.60
2022-11-15T15:45:11.317Z,21.58
2022-11-15T15:47:38.521Z,21.58
2022-11-15T15:50:26.325Z,21.58
2022-11-15T15:52:55.047Z,21.59
2022-11-15T15:55:22.315Z,21.58
2022-11-15T15:57:49.483Z,21.59
2022-11-15T16:00:17.226Z,21.60
2022-11-15T16:02:44.054Z,21.59
2022-11-15T16:05:11.498Z,21.60
2022-11-15T16:07:39.159Z,21.59
2022-11-15T16:10:30.172Z,21.61
2022-11-15T16:12:58.233Z,21.61
2022-11-15T16:15:27.859Z,21.62
2022-11-15T16:18:00.003Z,21.63
2022-11-15T16:20:37.384Z,21.62
2022-11-15T16:23:09.968Z,21.62
2022-11-15T16:25:51.438Z,21.63
2022-11-15T16:28:25.123Z,21.63
2022-11-15T16:31:05.227Z,21.64
2022-11-15T16:33:32.423Z,21.64
2022-11-15T16:35:59.144Z,21.66
2022-11-15T16:38:25.675Z,21.66
2022-11-15T16:40:52.179Z,21.62
2022-11-15T16:43:18.715Z,21.64
2022-11-15T16:45:45.299Z,21.62
2022-11-15T16:48:25.371Z,21.62
2022-11-15T16:50:56.291Z,21.64
2022-11-15T16:53:23.662Z,21.64
2022-11-15T16:55:50.013Z,21.64
2022-11-15T16:58:16.474Z,21.64
2022-11-15T17:00:43.074Z,21.64
2022-11-15T17:03:09.575Z,21.63
2022-11-15T17:05:36.031Z,21.61
2022-11-15T17:08:02.514Z,21.60
2022-11-15T17:10:29.039Z,21.58
2022-11-15T17:12:56.180Z,21.58
2022-11-15T17:15:24.466Z,21.58
2022-11-15T17:17:53.315Z,21.59
2022-11-15T17:20:22.293Z,21.60
2022-11-15T17:22:48.987Z,21.60
2022-11-15T17:25:15.677Z,21.63
2022-11-15T17:27:42.473Z,21.61
2022-11-15T17:30:12.343Z,21.61
2022-11-15T17:32:39.102Z,21.61
2022-11-15T17:35:14.823Z,21.61
2022-11-15T17:37:42.240Z,21.62
2022-11-15T17:40:09.654Z,21.63
2022-11-15T17:42:36.177Z,21.63
2022-11-15T17:45:08.037Z,21.63
2022-11-15T17:47:36.005Z,21.64
2022-11-15T17:50:02.546Z,21.62
2022-11-15T17:52:29.012Z,21.62
2022-11-15T17:54:55.461Z,21.62
2022-11-15T17:57:21.914Z,21.64
2022-11-15T17:59:49.021Z,21.63
2022-11-15T18:02:15.503Z,21.62
2022-11-15T18:04:42.040Z,21.59
2022-11-15T18:07:08.613Z,21.60
2022-11-15T18:09:35.091Z,21.57
2022-11-15T18:12:01.566Z,21.59
2022-11-15T18:14:28.042Z,21.56
2022-11-15T18:16:55.043Z,21.57
2022-11-15T18:19:21.714Z,21.54
2022-11-15T18:21:57.281Z,21.47
2022-11-15T18:24:33.471Z,21.55
2022-11-15T18:27:01.249Z,21.55
2022-11-15T18:29:28.073Z,21.54
2022-11-15T18:31:55.798Z,21.55
2022-11-15T18:34:24.496Z,21.56
2022-11-15T18:36:52.451Z,21.53
2022-11-15T18:39:19.414Z,21.52
2022-11-15T18:41:49.312Z,21.53
2022-11-15T18:44:16.399Z,21.53
2022-11-15T18:46:44.926Z,21.55
2022-11-15T18:49:13.596Z,21.53
2022-11-15T18:51:42.038Z,21.55
2022-11-15T18:54:14.703Z,21.55
2022-11-15T18:56:44.237Z,21.54
2022-11-15T18:59:10.844Z,21.55
2022-11-15T19:01:42.350Z,21.54
2022-11-15T19:04:11.298Z,21.55
2022-11-15T19:06:41.063Z,21.55
2022-11-15T19:09:08.933Z,21.54
2022-11-15T19:11:37.722Z,21.54
2022-11-15T19:14:12.654Z,21.55
2022-11-15T19:16:41.896Z,21.55
2022-11-15T19:19:13.082Z,21.51
2022-11-15T19:21:39.631Z,21.51
2022-11-15T19:24:06.559Z,21.54
2022-11-15T19:26:33.378Z,21.52
2022-11-15T19:29:01.588Z,21.53
2022-11-15T19:31:30.287Z,21.53
2022-11-15T19:34:00.722Z,21.51
2022-11-15T19:36:32.392Z,21.51
2022-11-15T19:39:00.738Z,21.52
2022-11-15T19:41:27.288Z,21.53
2022-11-15T19:43:53.770Z,21.53
2022-11-15T19:46:23.544Z,21.53
2022-11-15T19:48:51.410Z,21.50
2022-11-15T19:51:21.565Z,21.51
2022-11-15T19:53:49.471Z,21.50
2022-11-15T19:56:17.715Z,21.51
2022-11-15T19:58:44.825Z,21.52
2022-11-15T20:01:21.892Z,21.51
2022-11-15T20:03:50.124Z,21.50
2022-11-15T20:06:27.710Z,21.51
2022-11-15T20:08:54.578Z,21.52
2022-11-15T20:11:21.794Z,21.53
2022-11-15T20:13:48.601Z,21.52
2022-11-15T20:16:20.974Z,21.53
2022-11-15T20:18:48.943Z,21.52
2022-11-15T20:21:15.810Z,21.52
2022-11-15T20:23:42.860Z,21.52
2022-11-15T20:26:10.607Z,21.48
2022-11-15T20:28:39.019Z,21.50
2022-11-15T20:31:06.962Z,21.52
2022-11-15T20:33:33.752Z,21.57
2022-11-15T20:36:05.408Z,21.57
2022-11-15T20:38:32.516Z,21.61
2022-11-15T20:41:00.540Z,21.66
2022-11-15T20:43:27.350Z,21.70
2022-11-15T20:45:53.822Z,21.73
2022-11-15T20:48:20.483Z,21.76
2022-11-15T20:50:47.668Z,21.78
2022-11-15T20:53:17.385Z,21.79
2022-11-15T20:55:52.316Z,21.82
2022-11-15T20:58:19.430Z,21.83
2022-11-15T21:00:46.314Z,21.92
2022-11-15T21:03:14.241Z,21.98
2022-11-15T21:05:44.664Z,22.08
2022-11-15T21:08:12.322Z,22.14
2022-11-15T21:10:59.084Z,22.14
2022-11-15T21:13:26.705Z,22.11
2022-11-15T21:15:57.184Z,22.10
2022-11-15T21:18:24.249Z,22.09
2022-11-15T21:20:50.812Z,22.10
2022-11-15T21:23:17.327Z,22.12
2022-11-15T21:25:49.754Z,22.14
2022-11-15T21:28:16.268Z,22.16
2022-11-15T21:30:42.799Z,22.19
2022-11-15T21:33:09.255Z,22.24
2022-11-15T21:35:35.746Z,22.27
2022-11-15T21:38:02.198Z,22.29
2022-11-15T21:40:28.648Z,22.32
2022-11-15T21:42:55.123Z,22.34
2022-11-15T21:45:21.567Z,22.38
2022-11-15T21:47:48.062Z,22.41
2022-11-15T21:50:14.695Z,22.44
2022-11-15T21:52:41.571Z,22.48
2022-11-15T21:55:09.131Z,22.50
2022-11-15T21:57:35.688Z,22.52
2022-11-15T22:00:20.486Z,22.57
2022-11-15T22:02:46.951Z,22.59
2022-11-15T22:05:13.514Z,22.62
2022-11-15T22:07:40.048Z,22.66
2022-11-15T22:10:06.896Z,22.69
2022-11-15T22:12:33.363Z,22.72
2022-11-15T22:14:59.850Z,22.76
2022-11-15T22:17:46.367Z,22.79
2022-11-15T22:20:37.687Z,22.83
2022-11-15T22:23:00.222Z,22.88
2022-11-15T22:25:26.558Z,22.91
2022-11-15T22:27:53.570Z,22.95
2022-11-15T22:30:20.727Z,22.99
2022-11-15T22:32:47.304Z,23.01
2022-11-15T22:35:14.482Z,23.02
2022-11-15T22:37:41.415Z,23.04
2022-11-15T22:40:08.670Z,23.05
2022-11-15T22:42:34.993Z,23.08
2022-11-15T22:45:01.589Z,23.09
2022-11-15T22:47:28.056Z,23.10
2022-11-15T22:49:54.519Z,23.13
2022-11-15T22:52:21.001Z,23.14
2022-11-15T22:54:47.536Z,23.18
2022-11-15T22:57:13.997Z,23.19
2022-11-15T22:59:41.156Z,23.22
2022-11-15T23:02:07.679Z,23.25
2022-11-15T23:04:34.157Z,23.27
2022-11-15T23:07:00.751Z,23.28
2022-11-15T23:09:27.294Z,23.29
2022-11-15T23:12:12.542Z,23.27
2022-11-15T23:14:38.987Z,23.26
2022-11-15T23:17:05.450Z,23.26
2022-11-15T23:19:31.899Z,23.24
2022-11-15T23:22:16.820Z,23.23
2022-11-15T23:24:43.298Z,23.22
2022-11-15T23:27:10.447Z,23.23
2022-11-15T23:29:55.982Z,23.21
2022-11-15T23:32:41.231Z,23.21
2022-11-15T23:35:08.037Z,23.19
2022-11-15T23:37:34.491Z,23.17
2022-11-15T23:40:01.230Z,23.15
2022-11-15T23:42:27.739Z,23.16
2022-11-15T23:44:54.222Z,23.17
2022-11-15T23:47:20.702Z,23.16
2022-11-15T23:49:47.178Z,23.14
2022-11-15T23:52:15.423Z,23.12
2022-11-15T23:54:42.107Z,23.12
2022-11-15T23:57:11.878Z,23.10
2022-11-15T23:59:39.887Z,23.08
